Contrarian — 2FAJ3 — position and weather

sailwx.info

Track history (hours):
 
Tides and Currents Weather Stations Pressure Air Temp Water Temp Dewpoint Dewpoint Depression Visibility Wind Speed Wind Dir Waves Ship Positions

Contrarian

Last reported at 2017-May-28 00:50 UTC. Time now 2017-Oct-17 06:21 UTC.
Position N 39°16' E 003°17'.
Warning: this ship's position is months out of date.

Length 20 m.

Type: Sailing vessel. MMSI: 235089609.

Date/timePositionNaut miles runAvg speedWind from/ knotsBaromVisibWave heightAir tempDewpointWater temp
2017-May-28 00:50N 39°16' E 003°17'3 6.8
2017-May-28 00:27N 39°16' E 003°14'3 6.5
2017-May-28 00:00N 39°15' E 003°10'5 6.1
2017-May-27 23:09N 39°14' E 003°03'2 6.8
2017-May-27 22:49N 39°14' E 003°00'3 6.9
2017-May-27 22:23N 39°15' E 002°57'3 7.1
2017-May-27 21:59N 39°16' E 002°53'4 7.2
2017-May-27 21:27N 39°16' E 002°48'3 7.1
2017-May-27 20:59N 39°17' E 002°44'4 7.0
2017-May-27 20:24N 39°18' E 002°39'4 6.8
2017-May-27 19:49N 39°19' E 002°34'2 6.5
2017-May-27 19:28N 39°19' E 002°31'3 6.5
2017-May-27 19:00N 39°19' E 002°27'4 6.6
2017-May-27 18:28N 39°18' E 002°23'3 6.6
2017-May-27 17:58N 39°17' E 002°19'3 6.4
2017-May-27 17:30N 39°16' E 002°15'3 6.5
2017-May-27 17:00N 39°15' E 002°11'3 6.5
2017-May-27 16:29N 39°14' E 002°07'3 6.4
2017-May-27 15:59N 39°13' E 002°03'3 6.7
2017-May-27 15:29N 39°12' E 001°59'3 7.0
2017-May-27 15:00N 39°11' E 001°55'7 7.4
2017-May-27 14:00N 39°10' E 001°45'4 7.5
2017-May-27 13:25N 39°09' E 001°40'4 7.6
2017-May-27 12:56N 39°09' E 001°35'132 6.9
2017-May-26 17:55N 37°45' W 000°35'3 7.9
2017-May-26 17:30N 37°42' W 000°36'  
Track history (hours):
 
Tides and Currents Weather Stations Pressure Air Temp Water Temp Dewpoint Dewpoint Depression Visibility Wind Speed Wind Dir Waves Ship Positions

Contrarian

Last reported at 2017-May-28 00:50 UTC. Time now 2017-Oct-17 06:22 UTC.
Position N 39°16' E 003°17'.
Warning: this ship's position is months out of date.

Length 20 m.

Type: Sailing vessel. MMSI: 235089609.

Date/timePositionNaut miles runAvg speedWind from/ knotsBaromVisibWave heightAir tempDewpointWater temp
2017-May-28 00:50N 39°16' E 003°17'3 6.8
2017-May-28 00:27N 39°16' E 003°14'3 6.5
2017-May-28 00:00N 39°15' E 003°10'5 6.1
2017-May-27 23:09N 39°14' E 003°03'2 6.8
2017-May-27 22:49N 39°14' E 003°00'3 6.9
2017-May-27 22:23N 39°15' E 002°57'3 7.1
2017-May-27 21:59N 39°16' E 002°53'4 7.2
2017-May-27 21:27N 39°16' E 002°48'3 7.1
2017-May-27 20:59N 39°17' E 002°44'4 7.0
2017-May-27 20:24N 39°18' E 002°39'4 6.8
2017-May-27 19:49N 39°19' E 002°34'2 6.5
2017-May-27 19:28N 39°19' E 002°31'3 6.5
2017-May-27 19:00N 39°19' E 002°27'4 6.6
2017-May-27 18:28N 39°18' E 002°23'3 6.6
2017-May-27 17:58N 39°17' E 002°19'3 6.4
2017-May-27 17:30N 39°16' E 002°15'3 6.5
2017-May-27 17:00N 39°15' E 002°11'3 6.5
2017-May-27 16:29N 39°14' E 002°07'3 6.4
2017-May-27 15:59N 39°13' E 002°03'3 6.7
2017-May-27 15:29N 39°12' E 001°59'3 7.0
2017-May-27 15:00N 39°11' E 001°55'7 7.4
2017-May-27 14:00N 39°10' E 001°45'4 7.5
2017-May-27 13:25N 39°09' E 001°40'4 7.6
2017-May-27 12:56N 39°09' E 001°35'132 6.9
2017-May-26 17:55N 37°45' W 000°35'3 7.9
2017-May-26 17:30N 37°42' W 000°36'  

Dump ship's entire track history